»·PEaware :: N718BK KSNA-KAVX

N718BK :: KSNA-KAVX

FLIGHT INFORMATION

Flight Status: Arrived
Operator: Privately registered:
United States
More flights under this callsign
Pilot: Manhattan Flying Club (7137)
Aircraft: CESSNA 172 SKYHAWK
(C172)
More flights by this aircraft type
Origin: KSNA John Wayne-Orange Co
United States
Destination: KAVX Catalina
United States
More flights between these airports :: More routes between these airports
Route: SLI V21 SXC
File this flight plan on PilotEdge
Remarks: I-7 Rating
Altitude:
(Current/Filed)
4,000ft
Speed:
(Current/Filed)
115kts
Departed: 12-Apr-18 01:13 PM
Arrived: 12-Apr-18 01:47 PM
Distance/Time
Traveled:
32nm/0:34
Distance/Time
To Go:
Arrived

Flight Plot

Page will automatically refresh every two minutes.


Map Options




Map Legend


Flown Route
Filed Route
Departure Airport
Arrival Airport
Navaid (VOR, NDB)
Fix

Horizontal Profiles

Position Reports

Time Latitude Longitude Heading Altitude Ground
Speed
12-Apr-18 12:55 33.676170 -117.870963 219 59ft 0kts
12-Apr-18 12:56 33.676170 -117.870963 219 59ft 0kts
12-Apr-18 12:57 33.676170 -117.870963 219 59ft 0kts
12-Apr-18 12:58 33.676170 -117.870963 219 59ft 0kts
12-Apr-18 12:59 33.676170 -117.870963 219 59ft 0kts
12-Apr-18 13:00 33.676170 -117.870963 219 59ft 0kts
12-Apr-18 13:01 33.676170 -117.870963 219 59ft 0kts
12-Apr-18 13:02 33.676170 -117.870963 219 59ft 0kts
12-Apr-18 13:03 33.676170 -117.870963 219 59ft 0kts
12-Apr-18 13:04 33.676170 -117.870963 219 59ft 0kts
12-Apr-18 13:05 33.675775 -117.870343 65 59ft 6kts
12-Apr-18 13:06 33.677985 -117.868894 28 59ft 13kts
12-Apr-18 13:07 33.681283 -117.866718 84 59ft 8kts
12-Apr-18 13:08 33.681276 -117.866589 100 59ft 0kts
12-Apr-18 13:09 33.681276 -117.866589 100 59ft 0kts
12-Apr-18 13:10 33.681276 -117.866589 100 59ft 0kts
12-Apr-18 13:11 33.681119 -117.866141 114 59ft 9kts
12-Apr-18 13:12 33.669359 -117.873012 211 421ft 76kts
12-Apr-18 13:13 33.653839 -117.890950 233 1292ft 89kts
12-Apr-18 13:14 33.640376 -117.914570 243 2224ft 87kts
12-Apr-18 13:15 33.626823 -117.939129 239 3077ft 89kts
12-Apr-18 13:16 33.612396 -117.963643 241 3921ft 91kts
12-Apr-18 13:17 33.596406 -117.994988 241 4026ft 112kts
12-Apr-18 13:18 33.581733 -118.020899 242 4127ft 114kts
12-Apr-18 13:19 33.564183 -118.055033 245 3968ft 120kts
12-Apr-18 13:20 33.547341 -118.089249 242 3939ft 118kts
12-Apr-18 13:21 33.529810 -118.122318 242 3944ft 118kts
12-Apr-18 13:22 33.512238 -118.155440 243 3948ft 118kts
12-Apr-18 13:23 33.494403 -118.189067 243 3954ft 120kts
12-Apr-18 13:24 33.473358 -118.228699 244 3959ft 121kts
12-Apr-18 13:25 33.458198 -118.257214 245 3964ft 121kts
12-Apr-18 13:26 33.440256 -118.291406 245 3891ft 122kts
12-Apr-18 13:27 33.420599 -118.323422 243 3953ft 115kts
12-Apr-18 13:28 33.404117 -118.356446 250 3990ft 115kts
12-Apr-18 13:29 33.387412 -118.389693 245 4029ft 118kts
12-Apr-18 13:30 33.392587 -118.415979 345 3904ft 95kts
12-Apr-18 13:31 33.418672 -118.412571 359 3913ft 92kts
12-Apr-18 13:32 33.444003 -118.409031 0 3975ft 93kts
12-Apr-18 13:33 33.469435 -118.404463 5 3875ft 93kts
12-Apr-18 13:34 33.494344 -118.401586 330 3471ft 87kts
12-Apr-18 13:35 33.511347 -118.421594 317 3377ft 85kts
12-Apr-18 13:36 33.528815 -118.417582 86 3367ft 112kts
12-Apr-18 13:37 33.502066 -118.407439 181 3222ft 111kts
12-Apr-18 13:38 33.473216 -118.405690 182 2900ft 101kts
12-Apr-18 13:39 33.445940 -118.404638 185 2674ft 97kts
12-Apr-18 13:40 33.417409 -118.407161 193 2508ft 110kts
12-Apr-18 13:41 33.399839 -118.423034 258 2079ft 76kts
12-Apr-18 13:42 33.383894 -118.434962 158 2164ft 87kts
12-Apr-18 13:43 33.393170 -118.414583 52 2659ft 90kts
12-Apr-18 13:44 33.403612 -118.391617 50 2488ft 74kts
12-Apr-18 13:45 33.413233 -118.398366 276 2091ft 65kts
12-Apr-18 13:46 33.404761 -118.416042 246 1606ft 39kts
12-Apr-18 13:47 33.403860 -118.417125 113 1605ft 7kts
12-Apr-18 13:48 33.403699 -118.415260 35 1605ft 0kts

Navigation Log

Ident Type
1. KSNA Airport
2. SLI Navaid
3. SXC Navaid
4. KAVX Airport